createdAt,value
2023-04-30T00:00:04.621Z,12.83
2023-04-30T00:02:32.300Z,13.07
2023-04-30T00:04:59.921Z,11.57
2023-04-30T00:07:27.792Z,11.77
2023-04-30T00:09:57.508Z,13.27
2023-04-30T00:12:25.168Z,12.43
2023-04-30T00:14:52.748Z,12.27
2023-04-30T00:17:20.269Z,11.73
2023-04-30T00:19:47.758Z,12.67
2023-04-30T00:22:15.304Z,12.77
2023-04-30T00:24:42.857Z,18.60
2023-04-30T00:27:10.450Z,10.63
2023-04-30T00:29:37.974Z,13.50
2023-04-30T00:32:05.740Z,14.83
2023-04-30T00:34:33.307Z,10.73
2023-04-30T00:37:00.934Z,10.70
2023-04-30T00:39:28.445Z,11.73
2023-04-30T00:41:56.073Z,14.90
2023-04-30T00:44:23.666Z,13.60
2023-04-30T00:46:51.202Z,14.20
2023-04-30T00:49:18.706Z,11.60
2023-04-30T00:51:46.421Z,15.57
2023-04-30T00:54:13.946Z,13.77
2023-04-30T00:56:41.654Z,13.73
2023-04-30T00:59:09.301Z,13.63
2023-04-30T01:01:36.925Z,10.97
2023-04-30T01:04:04.555Z,17.40
2023-04-30T01:06:32.306Z,16.40
2023-04-30T01:08:59.935Z,14.10
2023-04-30T01:11:41.007Z,12.67
2023-04-30T01:14:12.946Z,16.90
2023-04-30T01:16:42.311Z,12.90
2023-04-30T01:19:11.223Z,11.87
2023-04-30T01:21:39.931Z,10.57
2023-04-30T01:24:19.310Z,14.93
2023-04-30T01:26:49.737Z,15.13
2023-04-30T01:29:17.720Z,9.20
2023-04-30T01:31:45.340Z,16.80
2023-04-30T01:34:12.945Z,10.13
2023-04-30T01:37:03.624Z,15.07
2023-04-30T01:39:49.216Z,14.70
2023-04-30T01:42:23.458Z,23.57
2023-04-30T01:45:08.108Z,16.73
2023-04-30T01:48:04.205Z,15.87
2023-04-30T01:50:32.002Z,16.97
2023-04-30T01:53:00.606Z,17.33
2023-04-30T01:55:33.986Z,15.97
2023-04-30T01:58:03.572Z,15.93
2023-04-30T02:00:31.282Z,13.60
2023-04-30T02:02:59.520Z,17.90
2023-04-30T02:05:27.361Z,15.83
2023-04-30T02:07:55.284Z,17.70
2023-04-30T02:10:23.717Z,18.20
2023-04-30T02:12:51.313Z,18.90
2023-04-30T02:15:18.914Z,23.70
2023-04-30T02:17:46.618Z,19.53
2023-04-30T02:20:14.151Z,12.37
2023-04-30T02:22:41.732Z,13.73
2023-04-30T02:25:09.511Z,16.33
2023-04-30T02:27:37.063Z,15.80
2023-04-30T02:30:05.008Z,18.93
2023-04-30T02:32:32.666Z,15.10
2023-04-30T02:35:00.295Z,21.83
2023-04-30T02:37:27.870Z,16.50
2023-04-30T02:39:55.673Z,15.07
2023-04-30T02:42:23.397Z,18.70
2023-04-30T02:44:50.903Z,15.97
2023-04-30T02:47:18.447Z,17.57
2023-04-30T02:49:45.967Z,19.97
2023-04-30T02:52:13.598Z,16.43
2023-04-30T02:54:41.108Z,20.70
2023-04-30T02:57:08.708Z,21.13
2023-04-30T02:59:36.231Z,16.70
2023-04-30T03:02:03.788Z,16.83
2023-04-30T03:04:31.327Z,17.30
2023-04-30T03:06:58.960Z,16.20
2023-04-30T03:09:26.497Z,22.20
2023-04-30T03:11:54.077Z,16.60
2023-04-30T03:14:21.610Z,13.77
2023-04-30T03:16:49.217Z,20.13
2023-04-30T03:19:16.778Z,11.50
2023-04-30T03:21:44.370Z,22.63
2023-04-30T03:24:11.881Z,17.83
2023-04-30T03:26:39.534Z,19.43
2023-04-30T03:29:07.057Z,20.10
2023-04-30T03:31:34.655Z,18.87
2023-04-30T03:34:02.225Z,17.83
2023-04-30T03:36:29.796Z,16.87
2023-04-30T03:38:57.311Z,20.83
2023-04-30T03:41:24.854Z,21.13
2023-04-30T03:43:52.377Z,18.90
2023-04-30T03:46:19.973Z,17.17
2023-04-30T03:48:47.663Z,21.43
2023-04-30T03:51:15.224Z,18.70
2023-04-30T03:53:42.772Z,22.90
2023-04-30T03:56:10.509Z,19.13
2023-04-30T03:58:38.072Z,22.27
2023-04-30T04:01:05.960Z,22.90
2023-04-30T04:03:35.168Z,23.13
2023-04-30T04:06:02.857Z,21.07
2023-04-30T04:08:30.426Z,23.77
2023-04-30T04:10:58.119Z,24.40
2023-04-30T04:13:25.631Z,24.60
2023-04-30T04:15:53.311Z,20.10
2023-04-30T04:18:20.906Z,21.87
2023-04-30T04:20:48.501Z,19.77
2023-04-30T04:23:16.018Z,20.30
2023-04-30T04:25:43.564Z,24.90
2023-04-30T04:28:11.121Z,23.33
2023-04-30T04:30:38.743Z,24.90
2023-04-30T04:33:06.318Z,23.77
2023-04-30T04:35:33.932Z,22.23
2023-04-30T04:38:02.070Z,24.93
2023-04-30T04:40:29.880Z,20.13
2023-04-30T04:42:59.163Z,18.23
2023-04-30T04:45:26.792Z,41.90
2023-04-30T04:47:54.365Z,23.77
2023-04-30T04:50:21.997Z,20.03
2023-04-30T04:52:49.577Z,19.47
2023-04-30T04:55:17.217Z,20.43
2023-04-30T04:57:44.763Z,20.93
2023-04-30T05:00:12.548Z,20.67
2023-04-30T05:02:40.111Z,18.20
2023-04-30T05:05:07.941Z,13.90
2023-04-30T05:07:35.454Z,14.93
2023-04-30T05:10:03.136Z,15.70
2023-04-30T05:12:30.698Z,15.97
2023-04-30T05:14:58.264Z,15.80
2023-04-30T05:17:26.030Z,13.27
2023-04-30T05:19:53.958Z,14.23
2023-04-30T05:22:21.628Z,12.10
2023-04-30T05:24:49.208Z,12.73
2023-04-30T05:27:16.708Z,11.20
2023-04-30T05:29:44.282Z,15.27
2023-04-30T05:32:11.860Z,11.30
2023-04-30T05:34:39.464Z,13.23
2023-04-30T05:37:06.988Z,14.23
2023-04-30T05:39:34.624Z,14.33
2023-04-30T05:42:02.108Z,13.63
2023-04-30T05:44:29.667Z,14.40
2023-04-30T05:46:57.219Z,14.47
2023-04-30T05:49:24.821Z,11.70
2023-04-30T05:51:52.338Z,11.80
2023-04-30T05:54:19.933Z,11.50
2023-04-30T05:56:47.410Z,12.70
2023-04-30T05:59:15.010Z,13.17
2023-04-30T06:01:43.428Z,9.93
2023-04-30T06:04:11.613Z,14.07
2023-04-30T06:06:39.213Z,13.73
2023-04-30T06:09:07.030Z,12.70
2023-04-30T06:11:34.577Z,14.43
2023-04-30T06:14:02.231Z,10.50
2023-04-30T06:16:29.829Z,12.80
2023-04-30T06:18:57.428Z,11.03
2023-04-30T06:21:24.971Z,10.43
2023-04-30T06:23:53.032Z,11.57
2023-04-30T06:26:20.840Z,11.27
2023-04-30T06:28:48.437Z,11.27
2023-04-30T06:31:16.038Z,12.17
2023-04-30T06:33:43.676Z,14.33
2023-04-30T06:36:11.205Z,12.47
2023-04-30T06:38:38.753Z,12.63
2023-04-30T06:41:06.355Z,13.57
2023-04-30T06:43:33.984Z,12.03
2023-04-30T06:46:01.625Z,13.53
2023-04-30T06:48:29.225Z,13.50
2023-04-30T06:50:59.382Z,15.60
2023-04-30T06:53:27.010Z,11.87
2023-04-30T06:55:54.551Z,12.80
2023-04-30T06:58:22.161Z,13.40
2023-04-30T07:00:49.698Z,15.80
2023-04-30T07:03:17.416Z,13.70
2023-04-30T07:05:45.345Z,11.53
2023-04-30T07:08:12.969Z,16.10
2023-04-30T07:10:40.497Z,12.10
2023-04-30T07:13:08.036Z,13.17
2023-04-30T07:15:35.774Z,15.23
2023-04-30T07:18:03.570Z,14.23
2023-04-30T07:20:31.138Z,13.53
2023-04-30T07:22:58.885Z,12.80
2023-04-30T07:25:26.368Z,13.40
2023-04-30T07:27:53.994Z,13.20
2023-04-30T07:30:22.983Z,12.63
2023-04-30T07:32:52.143Z,14.23
2023-04-30T07:35:19.808Z,13.30
2023-04-30T07:37:47.361Z,12.33
2023-04-30T07:40:25.101Z,13.50
2023-04-30T07:43:02.445Z,11.90
2023-04-30T07:45:32.520Z,13.10
2023-04-30T07:48:00.149Z,13.23
2023-04-30T07:50:27.690Z,13.07
2023-04-30T07:52:55.290Z,13.47
2023-04-30T07:55:22.909Z,12.80
2023-04-30T07:57:50.505Z,12.27
2023-04-30T08:00:21.411Z,12.60
2023-04-30T08:02:49.703Z,12.37
2023-04-30T08:05:17.416Z,12.80
2023-04-30T08:07:45.028Z,10.93
2023-04-30T08:10:12.853Z,10.50
2023-04-30T08:12:40.470Z,12.10
2023-04-30T08:15:08.370Z,11.90
2023-04-30T08:17:36.257Z,7.63
2023-04-30T08:20:04.782Z,10.30
2023-04-30T08:22:32.498Z,12.47
2023-04-30T08:25:00.033Z,12.30
2023-04-30T08:27:27.740Z,11.37
2023-04-30T08:29:55.461Z,12.00
2023-04-30T08:32:23.480Z,10.77
2023-04-30T08:34:51.325Z,10.97
2023-04-30T08:37:18.953Z,11.13
2023-04-30T08:39:46.484Z,9.30
2023-04-30T08:42:14.961Z,12.93
2023-04-30T08:44:42.488Z,10.63
2023-04-30T08:47:11.958Z,11.13
2023-04-30T08:49:39.626Z,10.37
2023-04-30T08:52:07.569Z,9.03
2023-04-30T08:54:36.230Z,7.53
2023-04-30T08:57:03.831Z,6.10
2023-04-30T08:59:31.483Z,7.60
2023-04-30T09:02:00.875Z,9.50
2023-04-30T09:04:28.565Z,7.30
2023-04-30T09:06:56.298Z,7.87
2023-04-30T09:09:28.468Z,7.20
2023-04-30T09:12:12.338Z,6.30
2023-04-30T09:14:40.048Z,6.93
2023-04-30T09:17:08.116Z,5.83
2023-04-30T09:19:35.733Z,7.10
2023-04-30T09:22:19.374Z,6.80
2023-04-30T09:24:47.817Z,6.67
2023-04-30T09:27:19.894Z,5.53
2023-04-30T09:29:47.708Z,5.20
2023-04-30T09:32:18.229Z,3.90
2023-04-30T09:34:45.812Z,6.10
2023-04-30T09:37:13.328Z,4.23
2023-04-30T09:39:47.683Z,5.10
2023-04-30T09:42:15.281Z,4.53
2023-04-30T09:44:43.494Z,5.60
2023-04-30T09:47:18.120Z,4.30
2023-04-30T09:49:49.135Z,5.13
2023-04-30T09:52:16.848Z,7.27
2023-04-30T09:54:47.411Z,5.53
2023-04-30T09:57:15.820Z,6.40
2023-04-30T09:59:44.989Z,8.93
2023-04-30T10:02:14.342Z,9.20
2023-04-30T10:04:43.652Z,10.83
2023-04-30T10:07:16.079Z,10.13
2023-04-30T10:09:51.319Z,9.30
2023-04-30T10:12:22.342Z,11.00
2023-04-30T10:14:55.602Z,7.07
2023-04-30T10:17:26.202Z,10.50
2023-04-30T10:19:57.291Z,6.80
2023-04-30T10:22:24.978Z,7.23
2023-04-30T10:24:53.032Z,10.50
2023-04-30T10:27:20.643Z,7.67
2023-04-30T10:29:48.475Z,8.50
2023-04-30T10:32:16.377Z,5.17
2023-04-30T10:34:50.039Z,4.57
2023-04-30T10:37:32.718Z,4.23
2023-04-30T10:40:00.366Z,4.30
2023-04-30T10:42:27.896Z,5.03
2023-04-30T10:44:55.551Z,3.70
2023-04-30T10:47:28.849Z,3.53
2023-04-30T10:50:05.976Z,4.67
2023-04-30T10:52:33.546Z,2.27
2023-04-30T10:55:05.029Z,3.77
2023-04-30T10:57:32.777Z,2.33
2023-04-30T11:00:09.458Z,45.83
2023-04-30T11:02:44.330Z,5.20
2023-04-30T11:05:12.921Z,6.33
2023-04-30T11:07:50.529Z,3.20
2023-04-30T11:10:22.208Z,3.27
2023-04-30T11:12:51.062Z,2.83
2023-04-30T11:15:19.680Z,4.93
2023-04-30T11:17:49.029Z,4.63
2023-04-30T11:20:20.696Z,2.67
2023-04-30T11:22:48.416Z,2.80
2023-04-30T11:25:22.960Z,2.80
2023-04-30T11:27:50.944Z,2.73
2023-04-30T11:30:19.137Z,3.17
2023-04-30T11:32:50.466Z,3.77
2023-04-30T11:35:19.126Z,3.00
2023-04-30T11:37:48.337Z,2.87
2023-04-30T11:40:16.183Z,3.50
2023-04-30T11:42:45.974Z,3.53
2023-04-30T11:45:15.511Z,4.20
2023-04-30T11:47:46.987Z,3.00
2023-04-30T11:50:15.990Z,4.83
2023-04-30T11:52:49.111Z,3.10
2023-04-30T11:55:17.928Z,2.43
2023-04-30T11:57:46.610Z,5.13
2023-04-30T12:00:15.563Z,2.50
2023-04-30T12:02:44.196Z,3.67
2023-04-30T12:05:22.518Z,2.80
2023-04-30T12:07:57.809Z,2.57
2023-04-30T12:10:28.045Z,3.10
2023-04-30T12:12:55.897Z,2.67
2023-04-30T12:15:24.373Z,2.70
2023-04-30T12:17:52.025Z,12.87
2023-04-30T12:20:21.175Z,4.17
2023-04-30T12:22:49.207Z,2.37
2023-04-30T12:25:17.895Z,2.90
2023-04-30T12:27:49.721Z,1.73
2023-04-30T12:30:20.130Z,3.20
2023-04-30T12:32:49.931Z,2.27
2023-04-30T12:35:18.477Z,2.97
2023-04-30T12:37:46.839Z,5.53
2023-04-30T12:40:14.810Z,2.00
2023-04-30T12:42:45.614Z,25.83
2023-04-30T12:45:13.662Z,26.60
2023-04-30T12:47:44.937Z,12.83
2023-04-30T12:50:13.301Z,6.10
2023-04-30T12:52:40.889Z,9.17
2023-04-30T12:55:21.902Z,2.00
2023-04-30T12:58:08.630Z,2.30
2023-04-30T13:00:52.005Z,4.20
2023-04-30T13:03:20.735Z,5.10
2023-04-30T13:05:49.185Z,6.30
2023-04-30T13:08:16.841Z,10.90
2023-04-30T13:10:44.667Z,3.60
2023-04-30T13:13:13.076Z,4.10
2023-04-30T13:15:40.778Z,5.00
2023-04-30T13:18:08.942Z,4.33
2023-04-30T13:20:37.341Z,5.87
2023-04-30T13:23:05.494Z,1.87
2023-04-30T13:25:33.895Z,3.20
2023-04-30T13:28:01.578Z,2.37
2023-04-30T13:30:29.311Z,2.07
2023-04-30T13:32:57.042Z,3.10
2023-04-30T13:35:24.708Z,1.77
2023-04-30T13:37:52.432Z,3.70
2023-04-30T13:40:20.546Z,2.93
2023-04-30T13:42:48.833Z,2.20
2023-04-30T13:45:16.402Z,2.20
2023-04-30T13:47:44.128Z,3.40
2023-04-30T13:50:11.799Z,8.10
2023-04-30T13:52:39.437Z,3.30
2023-04-30T13:55:07.273Z,2.73
2023-04-30T13:57:34.859Z,2.30
2023-04-30T14:00:02.502Z,1.80
2023-04-30T14:02:30.379Z,1.60
2023-04-30T14:05:05.685Z,1.33
2023-04-30T14:07:34.562Z,1.63
2023-04-30T14:10:02.108Z,2.50
2023-04-30T14:12:29.680Z,2.80
2023-04-30T14:14:57.230Z,4.17
2023-04-30T14:17:25.372Z,2.00
2023-04-30T14:19:53.148Z,1.37
2023-04-30T14:22:20.899Z,2.83
2023-04-30T14:24:48.447Z,2.17
2023-04-30T14:27:16.063Z,1.67
2023-04-30T14:29:43.646Z,1.40
2023-04-30T14:32:11.362Z,4.83
2023-04-30T14:34:38.940Z,6.83
2023-04-30T14:37:06.556Z,3.87
2023-04-30T14:39:35.344Z,4.47
2023-04-30T14:42:03.009Z,1.70
2023-04-30T14:44:30.571Z,1.33
2023-04-30T14:46:58.186Z,7.80
2023-04-30T14:49:25.772Z,3.67
2023-04-30T14:51:53.389Z,2.23
2023-04-30T14:54:20.981Z,2.20
2023-04-30T14:56:48.716Z,3.30
2023-04-30T14:59:16.349Z,2.80
2023-04-30T15:01:44.002Z,2.10
2023-04-30T15:04:11.547Z,2.50
2023-04-30T15:06:39.167Z,2.93
2023-04-30T15:09:06.819Z,2.53
2023-04-30T15:11:34.494Z,2.47
2023-04-30T15:14:02.003Z,1.30
2023-04-30T15:16:30.153Z,1.93
2023-04-30T15:18:57.693Z,1.47
2023-04-30T15:21:25.190Z,5.70
2023-04-30T15:23:52.800Z,1.93
2023-04-30T15:26:20.442Z,4.63
2023-04-30T15:28:48.064Z,0.90
2023-04-30T15:31:15.728Z,1.67
2023-04-30T15:33:43.318Z,2.83
2023-04-30T15:36:11.259Z,1.40
2023-04-30T15:38:38.828Z,1.17
2023-04-30T15:41:06.550Z,1.60
2023-04-30T15:43:34.072Z,1.33
2023-04-30T15:46:01.708Z,3.50
2023-04-30T15:48:29.255Z,2.13
2023-04-30T15:50:56.801Z,2.50
2023-04-30T15:53:24.322Z,2.00
2023-04-30T15:55:51.936Z,2.10
2023-04-30T15:58:19.466Z,1.40
2023-04-30T16:00:47.024Z,1.93
2023-04-30T16:03:14.671Z,1.73
2023-04-30T16:05:42.391Z,2.13
2023-04-30T16:08:10.365Z,2.23
2023-04-30T16:10:38.226Z,1.20
2023-04-30T16:13:05.819Z,2.03
2023-04-30T16:15:33.488Z,3.77
2023-04-30T16:18:01.077Z,1.43
2023-04-30T16:20:28.836Z,3.47
2023-04-30T16:22:56.376Z,1.60
2023-04-30T16:25:24.111Z,2.47
2023-04-30T16:27:51.686Z,3.47
2023-04-30T16:30:19.330Z,1.83
2023-04-30T16:32:46.867Z,2.77
2023-04-30T16:35:14.692Z,1.63
2023-04-30T16:37:42.247Z,4.50
2023-04-30T16:40:09.947Z,1.57
2023-04-30T16:42:37.485Z,4.00
2023-04-30T16:45:05.210Z,1.20
2023-04-30T16:47:32.833Z,1.77
2023-04-30T16:50:00.668Z,1.70
2023-04-30T16:52:28.676Z,5.20
2023-04-30T16:54:56.258Z,2.23
2023-04-30T16:57:26.552Z,1.63
2023-04-30T16:59:54.333Z,3.83
2023-04-30T17:02:22.109Z,4.00
2023-04-30T17:04:49.761Z,1.23
2023-04-30T17:07:17.291Z,1.30
2023-04-30T17:09:44.886Z,2.27
2023-04-30T17:12:12.407Z,2.23
2023-04-30T17:14:40.006Z,2.33
2023-04-30T17:17:07.589Z,4.80
2023-04-30T17:19:35.153Z,1.33
2023-04-30T17:22:02.694Z,3.93
2023-04-30T17:24:30.261Z,5.37
2023-04-30T17:26:57.790Z,2.23
2023-04-30T17:29:25.383Z,3.33
2023-04-30T17:31:53.084Z,2.00
2023-04-30T17:34:20.834Z,1.67
2023-04-30T17:36:48.329Z,3.67
2023-04-30T17:39:16.618Z,2.33
2023-04-30T17:41:44.121Z,4.13
2023-04-30T17:44:11.800Z,2.70
2023-04-30T17:46:39.522Z,4.13
2023-04-30T17:49:07.423Z,2.40
2023-04-30T17:51:35.029Z,3.73
2023-04-30T17:54:02.619Z,1.33
2023-04-30T17:56:30.189Z,1.70
2023-04-30T17:58:59.715Z,1.73
2023-04-30T18:01:27.401Z,2.47
2023-04-30T18:03:55.142Z,2.17
2023-04-30T18:06:22.912Z,1.73
2023-04-30T18:08:50.485Z,2.67
2023-04-30T18:11:17.996Z,1.87
2023-04-30T18:13:45.481Z,3.30
2023-04-30T18:16:13.193Z,2.27
2023-04-30T18:18:40.732Z,4.60
2023-04-30T18:21:08.349Z,2.47
2023-04-30T18:23:35.920Z,2.70
2023-04-30T18:26:03.704Z,4.63
2023-04-30T18:28:31.264Z,2.53
2023-04-30T18:30:59.007Z,2.27
2023-04-30T18:33:27.098Z,1.47
2023-04-30T18:35:54.697Z,4.23
2023-04-30T18:38:22.363Z,2.90
2023-04-30T18:40:54.173Z,2.17
2023-04-30T18:43:22.200Z,2.53
2023-04-30T18:45:49.778Z,2.97
2023-04-30T18:48:17.676Z,2.83
2023-04-30T18:50:45.698Z,2.33
2023-04-30T18:53:13.281Z,5.80
2023-04-30T18:55:40.824Z,3.27
2023-04-30T18:58:08.439Z,3.20
2023-04-30T19:00:35.999Z,3.53
2023-04-30T19:03:03.592Z,3.63
2023-04-30T19:05:31.288Z,3.50
2023-04-30T19:07:58.846Z,2.80
2023-04-30T19:10:26.353Z,3.10
2023-04-30T19:12:53.944Z,4.00
2023-04-30T19:15:21.554Z,5.13
2023-04-30T19:17:49.156Z,4.03
2023-04-30T19:20:16.773Z,2.20
2023-04-30T19:22:44.341Z,2.53
2023-04-30T19:25:11.906Z,3.23
2023-04-30T19:27:39.482Z,4.20
2023-04-30T19:30:07.436Z,4.40
2023-04-30T19:32:35.076Z,3.00
2023-04-30T19:35:02.624Z,3.83
2023-04-30T19:37:30.170Z,2.23
2023-04-30T19:39:57.820Z,4.27
2023-04-30T19:42:25.535Z,4.13
2023-04-30T19:44:53.323Z,4.17
2023-04-30T19:47:21.008Z,6.53
2023-04-30T19:49:48.615Z,5.37
2023-04-30T19:52:16.277Z,4.90
2023-04-30T19:54:43.866Z,6.13
2023-04-30T19:57:11.441Z,5.30
2023-04-30T19:59:39.108Z,4.63
2023-04-30T20:02:07.217Z,4.90
2023-04-30T20:04:34.938Z,5.13
2023-04-30T20:07:02.531Z,6.03
2023-04-30T20:09:30.125Z,6.17
2023-04-30T20:11:57.921Z,8.23
2023-04-30T20:14:25.559Z,4.90
2023-04-30T20:16:53.251Z,5.17
2023-04-30T20:19:21.664Z,4.00
2023-04-30T20:21:49.828Z,4.00
2023-04-30T20:24:17.405Z,2.57
2023-04-30T20:26:45.131Z,4.03
2023-04-30T20:29:12.779Z,3.73
2023-04-30T20:31:40.497Z,6.77
2023-04-30T20:34:08.197Z,4.53
2023-04-30T20:36:35.847Z,8.23
2023-04-30T20:39:03.453Z,4.97
2023-04-30T20:41:31.078Z,5.73
2023-04-30T20:43:58.674Z,9.00
2023-04-30T20:46:26.279Z,6.47
2023-04-30T20:48:53.859Z,7.07
2023-04-30T20:51:21.489Z,6.53
2023-04-30T20:53:48.986Z,6.77
2023-04-30T20:56:16.601Z,7.90
2023-04-30T20:58:46.418Z,5.73
2023-04-30T21:01:14.061Z,6.30
2023-04-30T21:03:41.607Z,6.50
2023-04-30T21:06:09.244Z,6.47
2023-04-30T21:08:36.726Z,4.33
2023-04-30T21:11:07.181Z,6.57
2023-04-30T21:13:35.022Z,5.97
2023-04-30T21:16:02.553Z,6.23
2023-04-30T21:18:30.178Z,6.10
2023-04-30T21:21:07.920Z,5.87
2023-04-30T21:23:35.547Z,8.40
2023-04-30T21:26:03.278Z,6.57
2023-04-30T21:28:32.220Z,5.57
2023-04-30T21:31:03.768Z,5.93
2023-04-30T21:33:31.415Z,9.87
2023-04-30T21:36:00.203Z,5.40
2023-04-30T21:38:27.782Z,3.47
2023-04-30T21:40:55.273Z,5.37
2023-04-30T21:43:22.881Z,5.50
2023-04-30T21:45:50.465Z,6.90
2023-04-30T21:48:18.142Z,3.70
2023-04-30T21:50:47.224Z,6.90
2023-04-30T21:53:15.406Z,6.83
2023-04-30T21:55:42.998Z,4.33
2023-04-30T21:58:10.525Z,6.80
2023-04-30T22:00:38.020Z,4.27
2023-04-30T22:03:05.600Z,4.60
2023-04-30T22:05:33.212Z,6.03
2023-04-30T22:08:00.793Z,9.50
2023-04-30T22:10:28.393Z,6.33
2023-04-30T22:12:56.022Z,6.53
2023-04-30T22:15:24.122Z,6.70
2023-04-30T22:17:53.612Z,4.47
2023-04-30T22:20:21.227Z,4.00
2023-04-30T22:22:48.829Z,5.10
2023-04-30T22:25:16.394Z,6.83
2023-04-30T22:27:44.024Z,6.37
2023-04-30T22:30:11.805Z,4.93
2023-04-30T22:32:39.488Z,6.43
2023-04-30T22:35:10.670Z,8.37
2023-04-30T22:37:38.396Z,5.97
2023-04-30T22:40:06.393Z,6.43
2023-04-30T22:42:34.257Z,6.70
2023-04-30T22:45:01.822Z,9.70
2023-04-30T22:47:29.476Z,7.47
2023-04-30T22:49:57.875Z,6.63
2023-04-30T22:52:25.598Z,6.80
2023-04-30T22:54:53.131Z,5.93
2023-04-30T22:57:20.709Z,6.00
2023-04-30T22:59:48.223Z,5.53
2023-04-30T23:02:15.807Z,8.57
2023-04-30T23:04:43.350Z,5.03
2023-04-30T23:07:10.945Z,4.40
2023-04-30T23:09:38.519Z,6.10
2023-04-30T23:12:06.175Z,3.90
2023-04-30T23:14:33.696Z,6.03
2023-04-30T23:17:01.469Z,8.60
2023-04-30T23:19:29.133Z,6.30
2023-04-30T23:21:56.746Z,6.00
2023-04-30T23:24:24.278Z,6.97
2023-04-30T23:26:51.930Z,5.17
2023-04-30T23:29:19.456Z,7.03
2023-04-30T23:31:47.070Z,7.30
2023-04-30T23:34:14.604Z,8.97
2023-04-30T23:36:42.178Z,9.53
2023-04-30T23:39:09.730Z,7.97
2023-04-30T23:41:37.293Z,5.17
2023-04-30T23:44:06.217Z,11.47
2023-04-30T23:46:40.217Z,9.00
2023-04-30T23:49:07.846Z,5.20
2023-04-30T23:51:35.316Z,5.47
2023-04-30T23:54:03.106Z,12.63
2023-04-30T23:56:30.623Z,6.30
2023-04-30T23:58:58.210Z,11.87
